Terminal Aerodrome Forecast
Issued by NWS

Home | Current Version | Previous Version | Text Only | Print | Product List | Glossary On
Versions: 1 2 3 4 5 6 7 8 9 10 11 12 13
000
FTUS45 KGJT 301722
TAFRIL
TAF
KRIL 301722Z 3018/3118 VRB03KT P6SM FEW100 FEW250
     FM302000 29012G18KT P6SM SCT100 SCT250
     FM310200 05005KT P6SM SCT250
     FM310500 VRB03KT P6SM SCT250=

USA.gov is the U.S. government's official web portal to all federal, state and local government web resources and services.